CZ-0039 weather

Municipal Hospital Heliport
Litoměřice, Ústí nad Labem Region, Czechia

Public forecast

Using degrees Celsius for public forecast. Weather courtesy of forecast.io.

METAR (pilot weather report)

Report is more than 6 hours old.

Closest report is Vodochody Airport, 21.7 nm (40.3 km) SSE. Retrieved 2019/01/16 14:00 UTC (19 hours ago):

LKVO 161400Z 23010KT 9999 FEW021 BKN028 05/01 Q1010

TAF (pilot weather forecast)

Forecast is more than 12 hours old.

Closest forecast is Václav Havel Airport Prague, 26.8 nm (49.7 km) S. Retrieved 2019/01/16 00:18 UTC (1 day ago):

TAF LKPR 162300Z 1700/1806 22016KT CAVOK TEMPO 1700/1800 23020G30KT PROB30 TEMPO 1701/1704 24024G36KT BECMG 1710/1712 9999 SCT030 TEMPO 1715/1800 RA BKN023 BECMG 1800/1802 27012KT TEMPO 1802/1806 4000 RASN BKN020